Terminal Aerodrome Forecast
Issued by NWS Sioux Falls, SD

Home | Current Version | Previous Version | Graphics & Text | Print | Product List | Glossary Off
Versions: 1 2 3 4 5 6 7 8 9 10 11 12 13 14 15 16 17 18 19 20

000
FTUS43 KFSD 120500
TAFFSD
TAF
KFSD 120522Z 1206/1306 15005KT P6SM SCT050 BKN100
      TEMPO 1209/1213 4SM TSRA BKN035CB
     FM121300 09005KT P6SM SHRA SCT030 OVC050
     FM121800 01005KT P6SM SCT040 BKN090=

USA.gov is the U.S. government's official web portal to all federal, state and local government web resources and services.